createdAt,value
2022-12-01T00:03:37.738Z,36.21
2022-12-01T00:09:52.771Z,36.16
2022-12-01T00:16:17.199Z,36.45
2022-12-01T00:22:41.649Z,36.40
2022-12-01T00:29:05.920Z,36.60
2022-12-01T00:35:30.295Z,36.80
2022-12-01T00:41:54.730Z,36.74
2022-12-01T00:48:19.009Z,36.70
2022-12-01T00:54:43.342Z,36.96
2022-12-01T01:01:03.242Z,37.10
2022-12-01T01:07:21.553Z,37.18
2022-12-01T01:13:46.123Z,37.16
2022-12-01T01:20:10.425Z,37.15
2022-12-01T01:26:34.860Z,37.25
2022-12-01T01:32:59.236Z,37.29
2022-12-01T01:39:23.604Z,37.16
2022-12-01T01:45:53.656Z,37.36
2022-12-01T01:52:18.038Z,37.61
2022-12-01T01:58:45.122Z,37.51
2022-12-01T02:05:09.531Z,37.47
2022-12-01T02:11:39.875Z,37.64
2022-12-01T02:18:10.236Z,37.44
2022-12-01T02:24:38.996Z,37.70
2022-12-01T02:31:06.346Z,37.59
2022-12-01T02:37:31.224Z,37.63
2022-12-01T02:44:10.792Z,37.64
2022-12-01T02:50:35.104Z,37.77
2022-12-01T02:56:59.481Z,37.74
2022-12-01T03:03:29.544Z,37.67
2022-12-01T03:09:56.676Z,37.93
2022-12-01T03:16:45.088Z,37.92
2022-12-01T03:23:18.233Z,37.85
2022-12-01T03:29:42.532Z,37.92
2022-12-01T03:36:09.757Z,37.93
2022-12-01T03:42:34.050Z,37.99
2022-12-01T03:48:58.475Z,37.80
2022-12-01T03:55:38.146Z,37.87
2022-12-01T04:02:05.490Z,38.00
2022-12-01T04:08:29.946Z,37.86
2022-12-01T04:14:54.342Z,37.85
2022-12-01T04:21:18.653Z,37.78
2022-12-01T04:27:43.060Z,37.85
2022-12-01T04:34:07.569Z,37.76
2022-12-01T04:40:21.837Z,37.96
2022-12-01T04:46:46.345Z,38.03
2022-12-01T04:53:10.664Z,37.93
2022-12-01T04:59:35.123Z,37.98
2022-12-01T05:05:58.444Z,38.03
2022-12-01T05:12:22.818Z,38.22
2022-12-01T05:18:47.139Z,38.17
2022-12-01T05:25:11.522Z,38.06
2022-12-01T05:31:35.860Z,38.24
2022-12-01T05:38:06.079Z,38.29
2022-12-01T05:44:30.966Z,38.50
2022-12-01T05:50:55.393Z,38.79
2022-12-01T05:57:19.863Z,38.94
2022-12-01T06:03:44.327Z,38.67
2022-12-01T06:10:08.827Z,38.75
2022-12-01T06:16:42.047Z,38.52
2022-12-01T06:23:06.465Z,38.13
2022-12-01T06:29:30.906Z,37.84
2022-12-01T06:35:55.424Z,37.50
2022-12-01T06:42:19.747Z,37.28
2022-12-01T06:48:44.138Z,37.01
2022-12-01T06:55:08.551Z,36.89
2022-12-01T07:01:33.076Z,36.71
2022-12-01T07:07:59.722Z,36.70
2022-12-01T07:14:24.343Z,36.51
2022-12-01T07:20:48.847Z,36.48
2022-12-01T07:27:13.206Z,36.08
2022-12-01T07:33:37.594Z,36.12
2022-12-01T07:40:01.987Z,35.92
2022-12-01T07:46:26.373Z,35.90
2022-12-01T07:52:50.832Z,36.36
2022-12-01T07:59:15.251Z,36.91
2022-12-01T08:05:39.655Z,37.25
2022-12-01T08:12:04.004Z,37.73
2022-12-01T08:18:28.377Z,37.78
2022-12-01T08:24:55.476Z,37.88
2022-12-01T08:31:19.980Z,37.58
2022-12-01T08:37:44.481Z,37.45
2022-12-01T08:44:08.881Z,36.93
2022-12-01T08:50:33.252Z,36.86
2022-12-01T08:56:51.263Z,36.43
2022-12-01T09:03:15.584Z,36.34
2022-12-01T09:09:39.881Z,36.55
2022-12-01T09:16:04.343Z,36.19
2022-12-01T09:22:28.682Z,36.19
2022-12-01T09:28:53.030Z,36.04
2022-12-01T09:35:20.819Z,35.79
2022-12-01T09:41:53.211Z,35.50
2022-12-01T09:48:26.812Z,35.17
2022-12-01T09:54:51.108Z,35.02
2022-12-01T10:01:14.551Z,34.84
2022-12-01T10:07:42.182Z,34.74
2022-12-01T10:14:09.732Z,34.42
2022-12-01T10:20:45.955Z,34.43
2022-12-01T10:27:12.998Z,34.14
2022-12-01T10:33:37.424Z,34.23
2022-12-01T10:40:01.819Z,34.03
2022-12-01T10:46:26.231Z,33.98
2022-12-01T10:52:51.986Z,33.80
2022-12-01T10:59:25.321Z,33.77
2022-12-01T11:06:01.530Z,33.84
2022-12-01T11:12:25.918Z,33.60
2022-12-01T11:19:05.757Z,33.42
2022-12-01T11:25:36.086Z,33.45
2022-12-01T11:32:00.419Z,33.24
2022-12-01T11:38:29.926Z,33.08
2022-12-01T11:44:57.222Z,33.05
2022-12-01T11:51:24.541Z,33.20
2022-12-01T11:57:48.943Z,32.95
2022-12-01T12:04:13.346Z,32.91
2022-12-01T12:10:46.567Z,33.02
2022-12-01T12:17:25.825Z,32.82
2022-12-01T12:24:02.707Z,32.71
2022-12-01T12:30:45.328Z,32.84
2022-12-01T12:37:21.324Z,32.71
2022-12-01T12:43:48.569Z,32.63
2022-12-01T12:50:25.167Z,33.29
2022-12-01T12:56:49.782Z,33.95
2022-12-01T13:03:30.607Z,34.74
2022-12-01T13:10:00.686Z,35.06
2022-12-01T13:16:25.562Z,35.07
2022-12-01T13:22:49.942Z,35.26
2022-12-01T13:29:23.000Z,35.34
2022-12-01T13:36:38.236Z,35.27
2022-12-01T13:42:39.732Z,35.29
2022-12-01T13:49:12.837Z,35.13
2022-12-01T13:56:00.875Z,34.95
2022-12-01T14:02:25.223Z,34.73
2022-12-01T14:09:04.705Z,34.39
2022-12-01T14:15:29.101Z,34.18
2022-12-01T14:21:53.531Z,33.98
2022-12-01T14:28:17.820Z,33.99
2022-12-01T14:35:00.405Z,33.81
2022-12-01T14:41:24.801Z,33.56
2022-12-01T14:47:49.655Z,33.60
2022-12-01T14:54:16.875Z,33.67
2022-12-01T15:00:47.120Z,33.69
2022-12-01T15:07:11.870Z,33.83
2022-12-01T15:13:36.247Z,33.67
2022-12-01T15:20:03.141Z,33.61
2022-12-01T15:26:27.546Z,33.75
2022-12-01T15:32:51.880Z,33.78
2022-12-01T15:39:15.006Z,33.64
2022-12-01T15:45:39.518Z,33.62
2022-12-01T15:52:06.630Z,33.50
2022-12-01T15:58:31.151Z,33.45
2022-12-01T16:05:27.443Z,33.56
2022-12-01T16:12:10.372Z,33.48
2022-12-01T16:18:46.590Z,33.57
2022-12-01T16:25:13.947Z,33.31
2022-12-01T16:31:58.625Z,33.44
2022-12-01T16:38:22.750Z,33.37
2022-12-01T16:44:47.151Z,33.56
2022-12-01T16:51:14.650Z,33.54
2022-12-01T16:57:39.232Z,33.35
2022-12-01T17:04:07.401Z,33.37
2022-12-01T17:10:32.271Z,33.17
2022-12-01T17:16:57.478Z,33.04
2022-12-01T17:23:21.801Z,33.28
2022-12-01T17:29:45.675Z,33.58
2022-12-01T17:36:10.567Z,33.90
2022-12-01T17:42:34.939Z,34.33
2022-12-01T17:48:59.389Z,34.34
2022-12-01T17:55:23.676Z,34.05
2022-12-01T18:01:48.328Z,34.05
2022-12-01T18:08:12.841Z,33.90
2022-12-01T18:14:40.163Z,33.67
2022-12-01T18:21:04.468Z,33.57
2022-12-01T18:27:28.808Z,33.54
2022-12-01T18:33:53.223Z,33.68
2022-12-01T18:40:17.529Z,33.54
2022-12-01T18:46:42.100Z,33.42
2022-12-01T18:53:06.444Z,33.44
2022-12-01T18:59:37.400Z,33.45
2022-12-01T19:06:01.738Z,33.45
2022-12-01T19:12:26.128Z,33.48
2022-12-01T19:18:50.468Z,33.23
2022-12-01T19:25:14.860Z,33.34
2022-12-01T19:31:39.356Z,33.32
2022-12-01T19:38:03.793Z,33.37
2022-12-01T19:44:28.257Z,33.31
2022-12-01T19:50:52.757Z,33.32
2022-12-01T19:57:17.021Z,33.32
2022-12-01T20:03:41.522Z,33.42
2022-12-01T20:10:06.100Z,33.25
2022-12-01T20:16:20.510Z,33.05
2022-12-01T20:22:44.836Z,33.10
2022-12-01T20:29:09.161Z,33.10
2022-12-01T20:35:33.825Z,33.11
2022-12-01T20:41:58.230Z,33.10
2022-12-01T20:48:22.621Z,33.05
2022-12-01T20:54:47.053Z,32.97
2022-12-01T21:01:10.329Z,33.23
2022-12-01T21:07:37.277Z,33.03
2022-12-01T21:14:04.442Z,32.95
2022-12-01T21:20:34.430Z,32.88
2022-12-01T21:26:58.693Z,32.90
2022-12-01T21:33:31.928Z,32.98
2022-12-01T21:39:58.954Z,32.98
2022-12-01T21:46:19.912Z,32.95
2022-12-01T21:52:44.285Z,33.21
2022-12-01T21:59:14.615Z,33.53
2022-12-01T22:05:32.784Z,33.40
2022-12-01T22:11:59.674Z,33.62
2022-12-01T22:18:24.071Z,33.53
2022-12-01T22:24:48.546Z,33.63
2022-12-01T22:31:16.223Z,33.75
2022-12-01T22:37:40.569Z,33.50
2022-12-01T22:44:19.868Z,33.74
2022-12-01T22:50:48.692Z,33.69
2022-12-01T22:57:27.745Z,33.86
2022-12-01T23:03:52.112Z,33.98
2022-12-01T23:10:16.410Z,34.06
2022-12-01T23:16:40.745Z,34.18
2022-12-01T23:23:05.040Z,34.12
2022-12-01T23:29:28.769Z,34.22
2022-12-01T23:35:53.034Z,34.44
2022-12-01T23:42:23.218Z,34.54
2022-12-01T23:48:47.519Z,34.53
2022-12-01T23:55:11.934Z,34.65
